createdAt,value
2023-04-06T00:04:18.892Z,74.46
2023-04-06T00:09:18.882Z,74.98
2023-04-06T00:14:18.840Z,75.09
2023-04-06T00:19:18.763Z,75.50
2023-04-06T00:24:18.734Z,76.06
2023-04-06T00:29:18.700Z,76.37
2023-04-06T00:34:18.587Z,76.47
2023-04-06T00:39:19.749Z,76.89
2023-04-06T00:44:18.517Z,77.10
2023-04-06T00:49:18.488Z,77.31
2023-04-06T00:54:18.403Z,77.10
2023-04-06T00:59:18.377Z,77.66
2023-04-06T01:04:18.354Z,77.45
2023-04-06T01:09:18.340Z,77.45
2023-04-06T01:14:18.277Z,76.92
2023-04-06T01:19:18.149Z,77.34
2023-04-06T01:24:18.217Z,77.03
2023-04-06T01:29:18.033Z,77.34
2023-04-06T01:34:17.972Z,77.51
2023-04-06T01:39:26.756Z,74.80
2023-04-06T01:44:17.822Z,74.74
2023-04-06T01:49:17.753Z,74.43
2023-04-06T01:54:17.740Z,74.63
2023-04-06T01:59:17.680Z,73.87
2023-04-06T02:04:17.594Z,74.21
2023-04-06T02:09:17.577Z,73.14
2023-04-06T02:14:17.618Z,71.55
2023-04-06T02:19:17.653Z,72.10
2023-04-06T02:24:17.390Z,73.38
2023-04-06T02:29:17.373Z,75.19
2023-04-06T02:34:17.246Z,74.87
2023-04-06T02:39:17.240Z,74.77
2023-04-06T02:44:17.161Z,74.35
2023-04-06T02:49:17.176Z,74.46
2023-04-06T02:54:17.072Z,75.32
2023-04-06T02:59:17.030Z,75.98
2023-04-06T03:04:16.940Z,76.30
2023-04-06T03:09:16.894Z,76.96
2023-04-06T03:14:16.912Z,77.06
2023-04-06T03:19:16.837Z,77.17
2023-04-06T03:24:16.758Z,77.27
2023-04-06T03:29:16.705Z,77.27
2023-04-06T03:34:16.664Z,77.27
2023-04-06T03:39:19.979Z,78.14
2023-04-06T03:44:16.544Z,77.72
2023-04-06T03:49:16.486Z,78.14
2023-04-06T03:54:16.403Z,78.14
2023-04-06T03:59:16.484Z,78.14
2023-04-06T04:04:16.363Z,78.91
2023-04-06T04:09:16.287Z,78.59
2023-04-06T04:14:16.243Z,78.70
2023-04-06T04:19:16.174Z,78.91
2023-04-06T04:24:16.161Z,79.43
2023-04-06T04:29:16.084Z,79.64
2023-04-06T04:34:16.012Z,79.33
2023-04-06T04:39:16.116Z,79.68
2023-04-06T04:44:15.917Z,79.47
2023-04-06T04:49:15.851Z,79.36
2023-04-06T04:54:15.816Z,80.09
2023-04-06T04:59:15.792Z,79.64
2023-04-06T05:04:15.706Z,79.43
2023-04-06T05:09:15.737Z,79.64
2023-04-06T05:14:16.714Z,79.11
2023-04-06T05:19:15.589Z,79.01
2023-04-06T05:24:15.505Z,79.39
2023-04-06T05:29:15.478Z,79.29
2023-04-06T05:34:15.387Z,79.19
2023-04-06T05:39:15.326Z,79.15
2023-04-06T05:44:15.406Z,79.05
2023-04-06T05:49:15.335Z,78.69
2023-04-06T05:54:15.300Z,78.24
2023-04-06T05:59:15.219Z,77.37
2023-04-06T06:04:15.102Z,77.13
2023-04-06T06:09:15.104Z,76.06
2023-04-06T06:14:15.016Z,75.71
2023-04-06T06:19:14.948Z,75.57
2023-04-06T06:24:14.883Z,74.91
2023-04-06T06:29:14.829Z,74.57
2023-04-06T06:34:14.753Z,71.24
2023-04-06T06:39:15.697Z,69.65
2023-04-06T06:44:14.650Z,66.65
2023-04-06T06:49:14.739Z,65.97
2023-04-06T06:54:14.643Z,63.15
2023-04-06T06:59:14.635Z,59.75
2023-04-06T07:04:14.428Z,58.09
2023-04-06T07:09:14.396Z,56.83
2023-04-06T07:14:14.326Z,56.95
2023-04-06T07:19:14.277Z,55.69
2023-04-06T07:24:14.260Z,54.41
2023-04-06T07:29:14.216Z,53.23
2023-04-06T07:34:14.169Z,52.92
2023-04-06T07:39:14.032Z,52.54
2023-04-06T07:44:14.131Z,50.99
2023-04-06T07:49:13.975Z,51.07
2023-04-06T07:54:13.881Z,48.24
2023-04-06T07:59:13.860Z,49.24
2023-04-06T08:04:13.909Z,46.64
2023-04-06T08:09:13.744Z,46.39
2023-04-06T08:14:13.812Z,45.00
2023-04-06T08:19:13.621Z,47.66
2023-04-06T08:24:13.585Z,45.40
2023-04-06T08:29:13.594Z,44.76
2023-04-06T08:34:14.328Z,46.14
2023-04-06T08:39:13.396Z,43.85
2023-04-06T08:44:13.351Z,42.51
2023-04-06T08:49:13.362Z,43.55
2023-04-06T08:54:13.293Z,43.65
2023-04-06T08:59:13.249Z,46.38
2023-04-06T09:04:13.847Z,43.37
2023-04-06T09:09:13.063Z,41.78
2023-04-06T09:14:12.986Z,43.06
2023-04-06T09:19:12.989Z,43.30
2023-04-06T09:24:12.879Z,42.33
2023-04-06T09:29:12.999Z,38.92
2023-04-06T09:34:12.781Z,39.28
2023-04-06T09:39:12.775Z,38.76
2023-04-06T09:44:12.714Z,41.21
2023-04-06T09:49:12.643Z,39.67
2023-04-06T09:54:12.568Z,39.62
2023-04-06T09:59:12.737Z,38.40
2023-04-06T10:04:12.831Z,40.53
2023-04-06T10:09:12.390Z,37.95
2023-04-06T10:14:12.430Z,39.47
2023-04-06T10:19:13.431Z,40.26
2023-04-06T10:24:22.255Z,39.62
2023-04-06T10:29:12.209Z,38.91
2023-04-06T10:34:12.183Z,40.04
2023-04-06T10:39:12.049Z,39.39
2023-04-06T10:44:12.012Z,37.69
2023-04-06T10:49:11.965Z,39.58
2023-04-06T10:54:11.978Z,39.14
2023-04-06T10:59:11.976Z,38.18
2023-04-06T11:04:11.874Z,37.59
2023-04-06T11:09:11.859Z,39.19
2023-04-06T11:14:11.782Z,37.01
2023-04-06T11:19:11.728Z,36.90
2023-04-06T11:24:11.694Z,37.48
2023-04-06T11:29:11.568Z,37.85
2023-04-06T11:34:11.523Z,36.74
2023-04-06T11:39:11.459Z,38.78
2023-04-06T11:44:11.468Z,36.05
2023-04-06T11:49:11.368Z,35.92
2023-04-06T11:54:14.709Z,36.68
2023-04-06T11:59:11.317Z,38.31
2023-04-06T12:04:11.210Z,39.50
2023-04-06T12:09:11.127Z,39.00
2023-04-06T12:14:11.066Z,38.88
2023-04-06T12:19:11.051Z,36.93
2023-04-06T12:24:11.080Z,38.13
2023-04-06T12:29:11.073Z,38.91
2023-04-06T12:34:10.923Z,38.75
2023-04-06T12:39:10.868Z,40.05
2023-04-06T12:44:10.797Z,40.36
2023-04-06T12:49:10.714Z,39.42
2023-04-06T12:54:10.651Z,40.39
2023-04-06T12:59:10.657Z,40.94
2023-04-06T13:04:10.607Z,42.64
2023-04-06T13:09:10.499Z,45.08
2023-04-06T13:14:10.489Z,42.88
2023-04-06T13:19:10.420Z,41.75
2023-04-06T13:24:10.343Z,48.82
2023-04-06T13:29:10.276Z,43.81
2023-04-06T13:34:10.226Z,44.70
2023-04-06T13:39:10.147Z,47.41
2023-04-06T13:44:10.123Z,50.24
2023-04-06T13:49:10.162Z,45.89
2023-04-06T13:54:10.075Z,47.07
2023-04-06T13:59:10.036Z,85.32
2023-04-06T14:04:10.005Z,80.21
2023-04-06T14:09:09.913Z,76.16
2023-04-06T14:14:09.768Z,74.93
2023-04-06T14:19:09.755Z,70.04
2023-04-06T14:24:09.653Z,68.98
2023-04-06T14:29:09.670Z,67.73
2023-04-06T14:34:09.577Z,64.20
2023-04-06T14:39:09.507Z,63.32
2023-04-06T14:44:09.491Z,65.19
2023-04-06T14:49:09.436Z,67.91
2023-04-06T14:54:09.361Z,64.28
2023-04-06T14:59:09.277Z,63.74
2023-04-06T15:04:09.267Z,60.41
2023-04-06T15:09:09.172Z,60.38
2023-04-06T15:14:09.219Z,59.27
2023-04-06T15:19:09.080Z,59.80
2023-04-06T15:24:09.109Z,57.49
2023-04-06T15:29:09.023Z,59.83
2023-04-06T15:34:09.408Z,59.60
2023-04-06T15:39:08.850Z,58.15
2023-04-06T15:44:08.896Z,60.92
2023-04-06T15:49:13.284Z,62.92
2023-04-06T15:54:08.723Z,63.04
2023-04-06T15:59:08.660Z,67.65
2023-04-06T16:04:08.766Z,70.06
2023-04-06T16:09:08.539Z,69.62
2023-04-06T16:14:08.526Z,71.36
2023-04-06T16:19:08.428Z,73.10
2023-04-06T16:24:08.374Z,74.87
2023-04-06T16:29:17.166Z,74.87
2023-04-06T16:34:08.252Z,77.42
2023-04-06T16:39:08.252Z,78.31
2023-04-06T16:44:08.154Z,78.63
2023-04-06T16:49:08.092Z,79.48
2023-04-06T16:54:08.035Z,81.01
2023-04-06T16:59:07.977Z,80.91
2023-04-06T17:04:08.284Z,81.63
2023-04-06T17:09:07.888Z,81.43
2023-04-06T17:16:30.461Z,81.26
2023-04-06T17:21:30.415Z,81.36
2023-04-06T17:26:30.355Z,83.14
2023-04-06T17:31:30.282Z,81.12
2023-04-06T17:36:30.328Z,82.22
2023-04-06T17:41:30.153Z,80.74
2023-04-06T17:46:30.248Z,81.36
2023-04-06T17:51:30.063Z,81.91
2023-04-06T17:56:30.094Z,80.64
2023-04-06T18:01:29.951Z,81.01
2023-04-06T18:06:29.899Z,81.73
2023-04-06T18:11:29.848Z,80.19
2023-04-06T18:16:29.812Z,81.87
2023-04-06T18:21:29.710Z,81.67
2023-04-06T18:26:29.683Z,81.98
2023-04-06T18:31:30.873Z,82.28
2023-04-06T18:36:29.564Z,82.83
2023-04-06T18:41:29.479Z,81.87
2023-04-06T18:46:29.454Z,81.57
2023-04-06T18:51:29.372Z,82.49
2023-04-06T18:56:29.322Z,83.04
2023-04-06T19:01:29.320Z,83.69
2023-04-06T19:06:29.249Z,82.36
2023-04-06T19:11:29.138Z,83.96
2023-04-06T19:16:29.464Z,83.45
2023-04-06T19:21:29.060Z,84.31
2023-04-06T19:26:29.013Z,84.10
2023-04-06T19:31:29.008Z,83.39
2023-04-06T19:36:28.897Z,84.55
2023-04-06T19:41:28.832Z,84.52
2023-04-06T19:46:28.804Z,84.52
2023-04-06T19:51:28.754Z,84.72
2023-04-06T19:56:28.676Z,84.61
2023-04-06T20:01:28.688Z,85.93
2023-04-06T20:06:28.557Z,86.33
2023-04-06T20:11:28.571Z,85.78
2023-04-06T20:16:28.502Z,85.93
2023-04-06T20:21:28.375Z,86.13
2023-04-06T20:26:28.367Z,85.89
2023-04-06T20:31:28.353Z,85.68
2023-04-06T20:36:28.286Z,86.09
2023-04-06T20:41:28.214Z,86.19
2023-04-06T20:46:28.180Z,86.19
2023-04-06T20:51:28.097Z,86.40
2023-04-06T20:56:28.039Z,86.40
2023-04-06T21:01:28.138Z,86.60
2023-04-06T21:06:27.923Z,87.22
2023-04-06T21:11:27.836Z,87.53
2023-04-06T21:16:27.805Z,86.36
2023-04-06T21:21:27.740Z,86.30
2023-04-06T21:26:27.772Z,86.87
2023-04-06T21:31:27.765Z,86.50
2023-04-06T21:36:27.670Z,87.02
2023-04-06T21:41:27.575Z,87.08
2023-04-06T21:46:27.541Z,86.81
2023-04-06T21:51:27.548Z,87.12
2023-04-06T21:56:27.394Z,87.28
2023-04-06T22:01:27.956Z,87.49
2023-04-06T22:06:27.331Z,86.42
2023-04-06T22:11:27.231Z,86.83
2023-04-06T22:16:27.208Z,86.57
2023-04-06T22:21:27.138Z,86.57
2023-04-06T22:26:27.047Z,87.59
2023-04-06T22:31:26.955Z,87.49
2023-04-06T22:36:26.932Z,87.49
2023-04-06T22:41:26.879Z,87.96
2023-04-06T22:46:26.791Z,88.24
2023-04-06T22:51:26.762Z,88.31
2023-04-06T22:56:26.741Z,87.76
2023-04-06T23:01:26.684Z,88.31
2023-04-06T23:06:26.639Z,86.83
2023-04-06T23:11:26.552Z,86.83
2023-04-06T23:16:26.516Z,87.34
2023-04-06T23:21:26.544Z,87.55
2023-04-06T23:26:26.482Z,86.42
2023-04-06T23:31:26.291Z,87.55
2023-04-06T23:36:26.325Z,87.90
2023-04-06T23:41:26.203Z,87.65
2023-04-06T23:46:26.200Z,87.04
2023-04-06T23:51:26.070Z,88.72
2023-04-06T23:56:26.043Z,88.31
